Holden Beach, North Carolina
Current Conditions -  °F | °C
As of 10:15 AM on Saturday 25 Oct 2014 (Local Time) from KSUT Reporting Station
Clear Clear  
Wind Chill: 61°   Ceiling: Unl
Heat Index: 61°   Visibility: 10mi
Dew Point: 50°   Wind: 5mph
Humidity: 68%   Direction: 340°NNW
Pressure: 30.01"   Gusts: NA
Location:  34.0499°N, 78.3076°W
Report Text: KSUT 251415Z AUTO 34004KT 10SM CLR 16/10 A3001 RMK AO2 T01610101
Loading
Personal Weather Stations






























Interactive Weather Map
Tropical Storm Tracking
New forecast layout! Learn more

10-Day Weather Forecast

Advertisements
Track Severe Weather on mobile